Flight Track Log - Related Links

Times and Time Zones

All times are in EDT time to prevent confusion due to time zone crossing. See the AMF1695 flight status page for this flight to view local times or setup timezone preferences in your user account.

Time Position Orientation Groundspeed Altitude Reporting Facility
EDT Latitude Longitude Course Direction KTS MPH feet Rate Location/Type
Fri 09:05:10 PM 40.9997 -98.1839 60° Northeast 182 209 5,700  Level Minneapolis Center
Fri 09:06:25 PM 41.0136 -98.0994 78° East 194 223 7,300 1,182 Climbing Minneapolis Center
Fri 09:07:27 PM 41.0178 -98.0308 85° East 190 219 8,400 871 Climbing Minneapolis Center
Fri 09:08:29 PM 41.0261 -97.9597 81° East 192 221 9,100 341 Climbing Minneapolis Center
Fri 09:09:00 PM 41.0139 -97.9056 56° Northeast  Level FlightAware Approximate
Fri 09:09:30 PM 41.0353 -97.8772 82° East 214 246 9,100  Level Minneapolis Center
Fri 09:10:32 PM 41.0419 -97.7942 84° East 226 260 9,100  Level Minneapolis Center
Fri 09:11:34 PM 41.0481 -97.6967 85° East 222 255 9,100  Level Minneapolis Center
Fri 09:12:36 PM 41.0522 -97.6292 85° East 226 260 9,100 -50 Level Minneapolis Center
Fri 09:13:34 PM 41.0469 -97.5333 94° East 235 270 9,000 -51 Descending Minneapolis Center
Fri 09:14:34 PM 41.0614 -97.4492 77° East 238 274 9,000 50 Level Minneapolis Center
Fri 09:15:35 PM 41.0731 -97.3569 80° East 238 274 9,100  Climbing Minneapolis Center
Fri 09:16:36 PM 41.0831 -97.2706 81° East 237 273 9,000 -46 Descending Minneapolis Center
Fri 09:17:46 PM 41.1097 -97.1836 68° East 236 272 9,000 50 Level Minneapolis Center
Fri 09:18:37 PM 41.1072 -97.0997 92° East 237 273 9,100  Climbing Minneapolis Center
Fri 09:19:38 PM 41.1233 -97.0125 76° East 243 280 9,000  Descending Minneapolis Center
Fri 09:20:38 PM 41.1392 -96.9253 76° East 244 281 9,100  Climbing Minneapolis Center
Fri 09:21:53 PM 41.1456 -96.8175 85° East 243 280 9,000  Descending Minneapolis Center
Fri 09:22:33 PM 41.1253 -96.7578 114° Southeast 240 276 9,100  Climbing Minneapolis Center
Fri 09:22:55 PM 41.1333 -96.7311 68° East 241 277 9,000 -98 Descending Minneapolis Center
Fri 09:23:34 PM 41.1244 -96.6722 101° East 241 277 9,000  Level Minneapolis Center
Fri 09:23:57 PM 41.1403 -96.6472 50° Northeast 232 267 9,000 -98 Level Minneapolis Center
Fri 09:24:35 PM 41.1464 -96.5869 82° East 237 273 8,900 197 Descending Minneapolis Center
Fri 09:24:58 PM 41.1600 -96.5617 54° Northeast 241 277 9,200 100 Climbing Minneapolis Center
Fri 09:25:35 PM 41.1706 -96.5014 77° East 242 278 9,000 -97 Descending Minneapolis Center
Fri 09:26:00 PM 41.1819 -96.4797 55° Northeast 237 273 9,100 -393 Climbing Minneapolis Center
Fri 09:26:36 PM 41.1947 -96.4158 75° East 240 276 8,600 -774 Descending Minneapolis Center
Fri 09:27:02 PM 41.2100 -96.3778 62° Northeast 241 277 8,300 -984 Descending Minneapolis Center
Fri 09:27:37 PM 41.2183 -96.3247 78° East 268 308 7,600 -1,180 Descending Minneapolis Center
Fri 09:28:03 PM 41.2333 -96.2842 64° Northeast 253 291 7,100 -1,200 Descending Minneapolis Center
Fri 09:28:37 PM 41.2439 -96.2331 75° East 256 295 6,400 -968 Descending Minneapolis Center
Fri 09:29:05 PM 41.2592 -96.1953 62° Northeast 258 297 6,100 -689 Descending Minneapolis Center
Fri 09:29:38 PM 41.2697 -96.1472 74° East 246 283 5,700 -581 Descending Minneapolis Center
Fri 09:30:07 PM 41.2825 -96.1131 64° Northeast 252 290 5,500 -984 Descending Minneapolis Center
Fri 09:30:39 PM 41.3097 -96.0872 35° Northeast 230 265 4,700 -1,082 Descending Minneapolis Center
Fri 09:31:08 PM 41.3344 -96.0633 36° Northeast 241 277 4,400 -700 Descending Minneapolis Center
Fri 09:31:39 PM 41.3636 -96.0450 25° Northeast 216 249 4,000 -387 Descending Minneapolis Center
Fri 09:32:10 PM 41.3875 -96.0211 37° Northeast 223 257 4,000 -492 Level Minneapolis Center
Fri 09:32:40 PM 41.3919 -96.0000 74° East 154 177 3,500 -871 Descending Minneapolis Center
Fri 09:33:12 PM 41.3847 -95.9711 108° East 173 199 3,100 -806 Descending Minneapolis Center
Fri 09:33:47 PM 41.3667 -95.9639 163° South 96 110 2,600 -885 Descending Minneapolis Center
Fri 09:34:13 PM 41.3597 -95.9483 121° Southeast 131 151 2,200 -900 Descending Minneapolis Center
Fri 09:34:47 PM 41.3444 -95.9417 162° South 92 106 1,700 -581 Descending Minneapolis Center
Fri 09:35:15 PM 41.3378 -95.9283 124° Southeast 110 127 1,600 -327 Descending Minneapolis Center
Fri 09:35:42 PM 41.3242 -95.9217 160° South 96 110 1,400 -492 Descending Minneapolis Center
Fri 09:36:16 PM 41.3164 -95.9083 128° Southeast 100 115 1,100 -529 Descending Minneapolis Center
Fri 09:38:00 PM 41.3032 -95.8941 77° East  Level Estimated

Login

Don't have an account? Register now (free) for customized features, flight alerts, and more!